Résultats de la compétition "WE Garagnas, Moyenne distance CDL, ( 42 ), Chalmazel, 16/10/2010" du 16-10-2010 organisée par le club 4201
     
  Télécharger le fichier CSV.  
     
     

 Circuit "Circuit A"

Licence Nom Prénom Temps CN
précédent
Score sur
la course
Différence
167GUEORGIOUThierry0:37:1689658515-450
4220FLEURENTTheo0:39:5577447950+206
11665ADAMSKIPhilippe0:39:5875737940+367
14282CRESPINCelestin0:42:0173547553+199
84COUPATVincent0:43:1368407343+503
9354LOCATELLIYann0:44:0370257204+179
817GARDEYoann0:44:5673717063-308
14672BLANC-TRANCHANTOlivier0:45:0768537034+181
12868FUMEYClément0:48:1066426588-54
14782CHARONSimon0:48:1465766579+3
3464DECHAVANNELaurent0:50:2559736294+321
18477LAFARGEAlexandre0:53:1148915967+1076
3463DECHAVANNEFranck0:54:4257675802+35
2472LASOUCHEJohann0:57:0158195566-253
3742JOURDATOlivier1:01:3249945157+163
23433MONNIEREric1:04:34N/A4915N/A
16722DEROUXBenoit1:06:4148094759-50
2321DENAIXMichel1:07:2062514713-1538
20753LOUISONBruno1:08:4743504614+264
17951DUDOIGNONLudovic1:08:5946434600-43
1265COLLETERThomas1:09:0850634590-473
12057POUPARDStephane1:13:4943344299-35
21358GHIBAUDONicolas1:14:5551304236-894
14869TRUMEAUOlivier1:16:3750354142-893
13228BENOITPatrice1:17:1834504105+655
2357MANGUEROOlivier1:21:10N/A3910N/A
22571COURBISPierre1:38:28N/A3223N/A
23815ROMEYERMaxime1:43:14N/A3074N/A
23233FAUREGwénaël1:54:11N/A2779N/A
9584CHASSELINEricN/AN/A0N/A
12006JOUNEAUPierre-HenriN/A58470-5847
8498MARGUIERAurelienN/A35790-3579
2366BENACEKPhilippeN/A66470-6647
21997ALAMARGUYNicolasN/A34890-3489

  Indice de confiance du circuit (moyenne des différences entre CN et score sur la course des 3 à 10 premiers) : 144




 Circuit "Circuit B"

Licence Nom Prénom Temps CN
précédent
Score sur
la course
Différence
6658CHATAINGAmelie0:40:4460926945+853
17182PEYRINStephane0:43:5664266439+13
19587BOUCHETCharlotte0:44:2364986374-124
16372BAUDOTRemi0:46:4156986060+362
1678LASSALLEPascal0:46:4869236045-878
6948BODYJ-Laurent0:48:4844955797+1302
20772BAJTOSOVAHana0:49:1557775744-33
8457BODYThierry0:50:0353945652+258
23824KEMPEmily0:51:04N/A5540N/A
2731PERRINOdile0:56:5851144966-148
9460MONTEMONTPatrice0:57:3253104917-393
14065BOBINPhilippe0:58:3550864829-257
16631LEDUCJean-Christophe0:58:4243834819+436
244BONORALaurent0:59:1350954777-318
484MERMINEric1:00:4252254661-564
282PAULETDamien1:02:1446194546-73
6352GAYDONRegis1:03:1042834479+196
13294TOULIERFrancois1:04:4942404365+125
22205CHABANCEJean Marc1:06:3629144248+1334
22429BOURGANELVincent1:08:02N/A4158N/A
23605JOURJONJulien1:08:10N/A4150N/A
255LONGEREGilles1:11:0535913980+389
13628SIMONQuentin1:12:4140143892-122
241DUCRETPhilippe1:14:2442413802-439
3455BERTHELOTStephane1:16:5249523680-1272
15307BOBINEmmanuelle1:17:1329033664+761
19760BERRARDPhilippe1:17:2830543652+598
13965CHAVEEPhilippe1:20:2427413519+778
11418MINOTYoann1:21:2732523473+221
14098SIMONHerve1:22:09N/A3444N/A
23065LE ROYCarole1:24:25N/A3351N/A
18078RADISSONBruno1:26:3737543266-488
7874BOUCHERLEDorothee1:29:03N/A3177N/A
17140RIFFARDDenis1:33:12N/A3035N/A
18780VALLEIXJean-françois1:34:04N/A3007N/A
22688GENNAROBenoit 1:41:26N/A2789N/A
13336DEFIXDominique1:42:1240142768-1246
18706ROBICHONChristophe1:46:5939802644-1336
4901POINTEAUFabien1:47:3733782629-749
22227BLOTValentin2:24:55N/A1952N/A
19355GRILLONCélineN/AN/A0N/A
13284FEVRENathalieN/AN/A0N/A
18600PETINONGuyN/A43760-4376

  Indice de confiance du circuit (moyenne des différences entre CN et score sur la course des 3 à 10 premiers) : 181




 Circuit "Circuit C"

Licence Nom Prénom Temps CN
précédent
Score sur
la course
Différence
10183BODYFlorentin0:32:3457886736+948
9932BASSETIsia0:34:4952966300+1004
15093VILLEDIEURemi0:34:5451486285+1137
19297LEVESYValentin0:38:1841835727+1544
1848DERMINEJean0:40:0862535466-787
22330ROUXCorentin0:41:29N/A5288N/A
19764CHABANCEMaxime0:43:5136305002+1372
19133LE GOFFLoic0:44:1039694967+998
6741HENROTThierry0:49:3504424N/A
5310FAIVREJulie0:49:48N/A4405N/A
1847DERMINEIsabelle0:52:5048094152-657
8648VALCHERAClaire0:56:1342533902-351
1241FALGAChristina0:57:3935353805+270
10503MAZARDJ-Pierre0:57:5043433793-550
10502PELLETIERGenevieve0:58:4640423733-309
1291STEFANINIJ-Philippe0:59:1050203707-1313
15520VAUCHEEric1:01:2335123574+62
139CACHARDChristian1:02:0453373534-1803
20798TRONCHONValery1:02:1927663520+754
14099SIMONAnne1:02:42N/A3498N/A
18130BERRARDMarianne1:04:1530343414+380
18082RADISSONPaul1:05:5737343326-408
243BONORABeatrice1:06:0545213319-1202
17952DUDOIGNONJocelyne1:07:3335333247-286
277JACOMINOMireille1:08:5232553185-70
23RIOFFRAYAlain1:09:2931753157-18
18079WOEHRLE RADISSONAnne1:10:1829373120+183
6021BONNARDINPierre1:10:3426243108+484
11837MINOTBernard1:12:5936793006-673
15310BROUSSEIsabelle1:16:0439172884-1033
579AMORICHBruno1:19:3702755N/A
9933BASSETSylvie1:21:3236442690-954
17139RAYMONDEmmanuelle1:24:51N/A2585N/A
17633LAPEYREFrederique1:28:5028002469-331
851VALLATGerard1:29:3434262449-977
23576CHANALSéverine1:30:11N/A2432N/A
809BOURRINMichel1:31:4726782390-288
18601PETINONChristine1:34:0631822331-851
21046GONETJanick1:35:1002305N/A
18977GUINOTJoelle1:35:1617552303+548
13150GUETAZLaure1:35:3225342296-238
20862GENNAROBeatrice 1:39:4202200N/A
11415LONGERESeverine1:39:5123262197-129
23248BERNARDOTBlandine1:51:52N/A1961N/A
20752CHABANCEAnne1:53:5225521926-626
15092VILLEDIEUJ-LucN/A31930-3193
21359XIMENEZNadegeN/A18450-1845
10182BODYAgnesN/A24890-2489
10320ARIAGNOVeroniqueN/A38950-3895

  Indice de confiance du circuit (moyenne des différences entre CN et score sur la course des 3 à 10 premiers) : 325




 Circuit "Circuit D"

Licence Nom Prénom Temps CN
précédent
Score sur
la course
Différence
18120CHABANCEThomas0:34:0240915434+1343
8975PERRINArnaud0:34:4141695332+1163
8928MASCARELLHenri0:38:4548384772-66
18432HUMMEL-AZAISMargaux0:39:5936294625+996
2328MOISSETJacques0:43:0955184286-1232
7672DEVRIEUXNais0:46:1741553995-160
16357MAISONNEUVEValentine0:49:1034773761+284
3323SCHMITTDenys0:49:4046553723-932
751VOLAYAndre0:51:3745523583-969
14738BIHELJulia0:56:3039053273-632
21435DEFIXAnne Claire0:59:2127693116+347
22572RIVIEREEstelle1:02:02N/A2981N/A
2329MOISSETNicole1:02:1728472969+122
807BOURRINM-Francoise1:05:4124032815+412
20PLAGNEEliane1:07:5302724N/A
19PLAGNEChristian1:10:3902617N/A
22557NDJETEHENicole1:10:41N/A2616N/A
813COMBETAnnie1:10:4739942613-1381
13752VILLEDIEUMartine1:11:0038182605-1213
12056SCHMITT-POUPARDFlorence1:15:0933162461-855
20625BESSONManon1:15:097322461+1729
16403EUZENJ-Paul1:15:3030992449-650
22328POINASCamille1:16:5602404N/A
11810GUETMartine1:20:2919982298+300
23221TIRAVYLaurence1:30:25N/A2045N/A
18122BENOITNathalie1:43:5001781N/A
22796PERROUDAnaËlle1:47:47N/A1716N/A
10264LENFANTChantal1:47:5301714N/A
6494CAVELIUSPhilippeN/A25540-2554

  Indice de confiance du circuit (moyenne des différences entre CN et score sur la course des 3 à 10 premiers) : 598




 Circuit "Circuit E"

Licence Nom Prénom Temps CN
précédent
Score sur
la course
Différence
10184BODYMathilde0:43:1028912852-39
17925DROINSolene0:43:5524792803+324
11355BASSETMarian0:45:2444162712-1704
19767LOPEZEtienne0:48:3023732538+165
12403FALGABeatrice0:53:2019442308+364
17708XIMENEZVincent0:55:5820872200+113
19762BERRARDAnna0:56:2716312181+550
22451RIVOLLIERIsaline1:01:0302016N/A
21247LOTISSIERGreg1:03:53N/A1927N/A
11542BONORAMarine1:05:0320641892-172
14770TOULIER--ANCIANLucas1:05:3135431879-1664
20863GENNAROLeslie1:20:5301522N/A
22527PERRIN-VALERYAntoine1:30:55N/A1354N/A
21436COURSIERAntoine1:42:0212231206-17
23898FALQAlexandre1:42:41N/A1199N/A
23730DUSSUDYann1:54:56N/A1071N/A

  Indice de confiance du circuit (moyenne des différences entre CN et score sur la course des 3 à 10 premiers) : 490




 Circuit "Circuit F"

Licence Nom Prénom Temps CN
précédent
Score sur
la course
Différence
22689GENNAROMathis 0:20:31N/A2575N/A
8976PERRINMathieu0:21:1527252486-239
14458JOUNEAUHenri0:21:5218012416+615
20917GHIBAUDOSimon0:22:3720212336+315
21123LEDUCBenjamin0:22:4922452315+70
18089DUDOIGNONChloé0:23:5320162212+196
14402JOUNEAUAgathe0:24:0116842199+515
22094VIGIERLéo0:25:2702075N/A
22514GONETVictor0:27:03N/A1953N/A
20926BAZINThéo0:28:1016431875+232
18123BENOITDorian0:29:0101820N/A
18080RADISSONJules0:29:0222901819-471
19761BERRARDTom0:30:5415561709+153
12398BASSETJuliette0:34:0423681551-817
16043MONTEMONTLucas0:37:2901409N/A
18165TOULIER--ANCIANTom0:38:0118931389-504
21389TRONCHONMartin0:38:0912631385+122
18738CHAVEEAntoine0:38:1018421384-458
11543BONORALise0:38:3815731367-206
19309XIMENEZLisa0:39:1911381343+205
16836MONTEMONTClement0:40:1801311N/A
17953DUDOIGNONMarine0:43:4815811206-375
21124LEDUCPaul0:44:5718311175-656
23020PETINONSamuel0:49:00N/A1078N/A
20916CORBINEmma1:12:460726N/A
20915CORBINMariane1:18:590669N/A

  Indice de confiance du circuit (moyenne des différences entre CN et score sur la course des 3 à 10 premiers) : 200






 Retour